Terminal Aerodrome Forecast
Issued by NWS

Home | Current Version | Previous Version | Text Only | Print | Product List | Glossary On
Versions: 1 2 3 4 5 6 7 8 9 10 11 12 13
000
FTUS46 KMFR 281145
TAFLMT
TAF
KLMT 281145Z 2812/2912 VRB03KT 5SM FU HZ BKN200
     FM281900 21010G20KT 6SM FU HZ BKN200
     FM282100 21015G25KT P6SM BKN200
     FM290400 18008KT P6SM OVC150
     FM290700 19014G20KT P6SM SCT060 BKN150=

USA.gov is the U.S. government's official web portal to all federal, state and local government web resources and services.